KAFO/AFO METAR and TAF weather

Enter ICAO airport designator
Station Type Date Time Source
KAFO METAR 2019/06/16 06:35 UTC NOAA

KAFO 160635Z AUTO 18003KT 10SM CLR 08/07 A3009 RMK AO2


Station Type Date Time Source
KAFO Decoded METAR 2019/06/16 06:35 UTC NOAA

Station name not available
Jun 16, 2019 - 02:35 AM EDT / 2019.06.16 0635 UTC
Wind: from the S (180 degrees) at 3 MPH (3 KT):0
Visibility: 10 mile(s):0
Sky conditions: clear
Temperature: 46 F (8 C)
Dew Point: 44 F (7 C)
Relative Humidity: 93%
Pressure (altimeter): 30.09 in. Hg (1018 hPa)
ob: KAFO 160635Z AUTO 18003KT 10SM CLR 08/07 A3009 RMK AO2
cycle: 6

Station Type Date Time Source
KAFO TAF UTC NOAA

Error!

Example: see airport list